Time;durP1;ratioP1;P1;durP2;ratioP2;P2;SDS_P1;SDS_P2;PMS_P1;PMS_P2;Temp;Humidity;BMP_temperature;BMP_pressure;BME280_temperature;BME280_humidity;BME280_pressure;Samples;Min_cycle;Max_cycle;Signal;HPM_P1;HPM_P2
2021/04/19 00:01:17;;;;;;;17.42;13.20;;;5.60;99.90;;;;;;5038507;28;20085;-76
2021/04/19 00:03:43;;;;;;;16.88;12.80;;;5.60;99.90;;;;;;5052870;28;20069;-77
2021/04/19 00:06:09;;;;;;;19.83;13.90;;;5.60;99.90;;;;;;5061789;28;20198;-76
2021/04/19 00:08:35;;;;;;;22.10;15.82;;;5.60;99.90;;;;;;5062950;28;20590;-77
2021/04/19 00:11:00;;;;;;;21.63;14.45;;;5.60;99.90;;;;;;5059173;28;20164;-77
2021/04/19 00:13:26;;;;;;;24.08;14.20;;;5.50;99.90;;;;;;5058350;28;20105;-77
2021/04/19 00:15:52;;;;;;;23.10;15.48;;;5.50;99.90;;;;;;5062580;28;20164;-78
2021/04/19 00:18:17;;;;;;;22.42;15.00;;;5.50;99.90;;;;;;5064767;28;20474;-78
2021/04/19 00:20:43;;;;;;;21.42;14.68;;;5.50;99.90;;;;;;5056388;28;20077;-77
2021/04/19 00:23:09;;;;;;;19.40;13.95;;;5.60;99.90;;;;;;5052996;28;20474;-77
2021/04/19 00:25:34;;;;;;;19.25;14.15;;;5.50;99.90;;;;;;5035724;28;20074;-78
2021/04/19 00:28:00;;;;;;;18.63;13.98;;;5.50;99.90;;;;;;5053545;28;20092;-77
2021/04/19 00:30:26;;;;;;;20.30;14.27;;;5.60;99.90;;;;;;5068591;28;20095;-77
2021/04/19 00:32:52;;;;;;;19.88;13.48;;;5.60;99.90;;;;;;5064139;28;20074;-78
2021/04/19 00:35:17;;;;;;;19.85;14.32;;;5.60;99.90;;;;;;5055360;28;20523;-77
2021/04/19 00:37:43;;;;;;;23.10;15.63;;;5.60;99.90;;;;;;5038937;28;20175;-77
2021/04/19 00:40:14;;;;;;;23.77;14.70;;;5.60;99.90;;;;;;5055581;28;20074;-77
2021/04/19 00:42:41;;;;;;;18.13;13.20;;;5.50;99.90;;;;;;5063897;28;20093;-78
2021/04/19 00:45:08;;;;;;;21.67;14.85;;;5.40;99.90;;;;;;5055913;28;20107;-76
2021/04/19 00:47:35;;;;;;;22.17;15.13;;;5.40;99.90;;;;;;5058725;28;20108;-77
2021/04/19 00:50:03;;;;;;;22.95;14.85;;;5.40;99.90;;;;;;5048986;28;20145;-76
2021/04/19 00:52:29;;;;;;;19.20;14.45;;;5.50;99.90;;;;;;5054235;28;20078;-78
2021/04/19 00:54:58;;;;;;;21.38;15.32;;;5.40;99.90;;;;;;5059992;28;20113;-78
2021/04/19 00:57:23;;;;;;;21.75;15.18;;;5.30;99.90;;;;;;5054361;28;20577;-77
2021/04/19 00:59:49;;;;;;;24.20;16.58;;;5.30;99.90;;;;;;5042052;28;20085;-77
2021/04/19 01:02:15;;;;;;;20.63;14.50;;;5.30;99.90;;;;;;5056762;28;20494;-78
2021/04/19 01:04:40;;;;;;;24.13;15.93;;;5.40;99.90;;;;;;5063574;28;20077;-77
2021/04/19 01:07:06;;;;;;;20.23;14.02;;;5.40;99.90;;;;;;5065195;28;20100;-77
2021/04/19 01:09:31;;;;;;;22.00;15.35;;;5.30;99.90;;;;;;5062445;28;20081;-76
2021/04/19 01:11:57;;;;;;;21.70;15.25;;;5.30;99.90;;;;;;5038598;28;20532;-77
2021/04/19 01:14:23;;;;;;;20.75;13.70;;;5.20;99.90;;;;;;5045741;28;20077;-78
2021/04/19 01:16:49;;;;;;;18.98;14.27;;;5.30;99.90;;;;;;5072791;28;20093;-76
2021/04/19 01:19:14;;;;;;;20.98;14.48;;;5.30;99.90;;;;;;5070619;28;20589;-78
2021/04/19 01:21:40;;;;;;;23.38;15.23;;;5.40;99.90;;;;;;5069918;28;20103;-77
2021/04/19 01:24:06;;;;;;;24.35;16.70;;;5.40;99.90;;;;;;5066165;28;20077;-77
2021/04/19 01:26:31;;;;;;;23.10;15.25;;;5.30;99.90;;;;;;5061972;28;20574;-77
2021/04/19 01:28:57;;;;;;;23.50;15.38;;;5.30;99.90;;;;;;5055343;28;20528;-77
2021/04/19 01:31:23;;;;;;;25.05;17.13;;;5.20;99.90;;;;;;5061074;28;20603;-77
2021/04/19 01:33:48;;;;;;;25.27;16.70;;;5.20;99.90;;;;;;5054728;28;20100;-76
2021/04/19 01:36:15;;;;;;;25.60;17.55;;;5.10;99.90;;;;;;5043102;28;20180;-77
2021/04/19 01:38:41;;;;;;;26.65;16.63;;;5.30;99.90;;;;;;5052457;28;20081;-76
2021/04/19 01:41:06;;;;;;;26.83;16.85;;;5.20;99.90;;;;;;5040123;28;20092;-76
2021/04/19 01:43:32;;;;;;;26.15;17.23;;;5.20;99.90;;;;;;5071210;28;20080;-76
2021/04/19 01:45:58;;;;;;;24.38;17.30;;;5.20;99.90;;;;;;5053836;28;21242;-77
2021/04/19 01:48:24;;;;;;;23.65;15.55;;;5.20;99.90;;;;;;5062464;28;20078;-76
2021/04/19 01:50:52;;;;;;;23.33;16.42;;;5.20;99.90;;;;;;5063740;28;20102;-78
2021/04/19 01:53:18;;;;;;;24.40;17.38;;;5.10;99.90;;;;;;5054607;28;20084;-77
2021/04/19 01:55:44;;;;;;;23.88;16.05;;;5.10;99.90;;;;;;5037444;28;20531;-76
2021/04/19 01:58:16;;;;;;;27.48;17.05;;;5.10;99.90;;;;;;5062026;28;20093;-76
2021/04/19 02:00:43;;;;;;;23.33;15.45;;;5.10;99.90;;;;;;5066367;28;20066;-77
2021/04/19 02:03:20;;;;;;;26.08;16.05;;;5.00;99.90;;;;;;5055578;28;20069;-77
2021/04/19 02:05:58;;;;;;;26.08;16.27;;;5.00;99.90;;;;;;5053978;28;20062;-77
2021/04/19 02:08:38;;;;;;;24.98;16.58;;;5.00;99.90;;;;;;5040538;28;20542;-76
2021/04/19 02:11:19;;;;;;;26.48;16.67;;;5.10;99.90;;;;;;5068400;28;20127;-77
2021/04/19 02:14:00;;;;;;;22.25;15.18;;;5.20;99.90;;;;;;5054476;28;20089;-77
2021/04/19 02:16:38;;;;;;;28.25;16.83;;;5.20;99.90;;;;;;5059687;28;20116;-78
2021/04/19 02:19:17;;;;;;;24.35;15.65;;;5.20;99.90;;;;;;5057776;28;20081;-77
2021/04/19 02:21:52;;;;;;;22.17;15.52;;;5.20;99.90;;;;;;5037694;28;20089;-77
2021/04/19 02:24:23;;;;;;;21.35;14.82;;;5.20;99.90;;;;;;5054688;28;20069;-77
2021/04/19 02:26:58;;;;;;;23.88;15.80;;;5.20;99.90;;;;;;5037180;28;20128;-77
2021/04/19 02:29:31;;;;;;;26.02;16.08;;;5.30;99.90;;;;;;5056956;28;20123;-77
2021/04/19 02:32:01;;;;;;;22.85;15.40;;;5.20;99.90;;;;;;5066353;28;20600;-77
2021/04/19 02:34:30;;;;;;;21.27;14.30;;;5.20;99.90;;;;;;5063580;28;20081;-77
2021/04/19 02:36:57;;;;;;;24.58;15.25;;;5.20;99.90;;;;;;5071582;28;20116;-77
2021/04/19 02:39:23;;;;;;;23.60;14.73;;;5.20;99.90;;;;;;5057399;28;20081;-77
2021/04/19 02:41:56;;;;;;;21.05;14.52;;;5.20;99.90;;;;;;5062646;28;20082;-77
2021/04/19 02:44:22;;;;;;;22.95;15.18;;;5.10;99.90;;;;;;5068631;28;20111;-77
2021/04/19 02:46:52;;;;;;;22.75;14.73;;;5.20;99.90;;;;;;5071274;28;20135;-77
2021/04/19 02:49:21;;;;;;;21.85;14.77;;;5.20;99.90;;;;;;5056310;28;20065;-77
2021/04/19 02:51:48;;;;;;;23.25;15.13;;;5.20;99.90;;;;;;5059758;28;20070;-77
2021/04/19 02:54:14;;;;;;;21.23;14.60;;;5.20;99.90;;;;;;5049789;28;20093;-77
2021/04/19 02:56:41;;;;;;;23.08;15.25;;;5.10;99.90;;;;;;5073541;28;20097;-77
2021/04/19 02:59:09;;;;;;;23.38;15.02;;;5.00;99.90;;;;;;5053488;28;20074;-77
2021/04/19 03:01:39;;;;;;;24.65;16.05;;;5.10;99.90;;;;;;5073143;28;20093;-77
2021/04/19 03:04:12;;;;;;;22.50;15.30;;;5.00;99.90;;;;;;5060406;28;20069;-77
2021/04/19 03:06:41;;;;;;;23.02;15.60;;;4.90;99.90;;;;;;5054781;28;20127;-77
2021/04/19 03:09:07;;;;;;;23.27;16.60;;;4.90;99.90;;;;;;5055140;28;20062;-78
2021/04/19 03:11:55;;;;;;;23.45;14.75;;;5.00;99.90;;;;;;5046210;28;20546;-78
2021/04/19 03:14:27;;;;;;;20.67;14.75;;;5.00;99.90;;;;;;5062166;28;20089;-77
2021/04/19 03:17:15;;;;;;;24.63;15.48;;;5.10;99.90;;;;;;5050650;28;20105;-77
2021/04/19 03:20:02;;;;;;;21.85;14.10;;;5.10;99.90;;;;;;5064106;28;20081;-77
2021/04/19 03:22:29;;;;;;;25.30;15.13;;;5.10;99.90;;;;;;5066646;28;20093;-77
2021/04/19 03:24:55;;;;;;;22.20;14.75;;;5.00;99.90;;;;;;5052165;28;20084;-77
2021/04/19 03:27:24;;;;;;;22.35;15.30;;;5.10;99.90;;;;;;5038334;28;20085;-76
2021/04/19 03:29:50;;;;;;;21.17;13.98;;;5.10;99.90;;;;;;5056349;28;20072;-77
2021/04/19 03:32:19;;;;;;;24.08;15.18;;;5.10;99.90;;;;;;5056251;28;20089;-78
2021/04/19 03:34:47;;;;;;;25.35;14.57;;;5.10;99.90;;;;;;5056991;28;20077;-77
2021/04/19 03:37:23;;;;;;;21.58;13.85;;;5.10;99.90;;;;;;5059871;28;20172;-77
2021/04/19 03:39:55;;;;;;;22.10;13.43;;;5.10;99.90;;;;;;5056808;28;20077;-77
2021/04/19 03:42:24;;;;;;;21.48;13.82;;;5.10;99.90;;;;;;5052042;28;20147;-77
2021/04/19 03:44:52;;;;;;;23.23;15.82;;;5.10;99.90;;;;;;5054169;28;20077;-77
2021/04/19 03:47:20;;;;;;;22.25;15.07;;;5.00;99.90;;;;;;5053508;28;20093;-77
2021/04/19 03:49:53;;;;;;;23.45;15.65;;;5.20;99.90;;;;;;5059986;28;20444;-77
2021/04/19 03:52:23;;;;;;;24.42;15.30;;;5.00;99.90;;;;;;5035992;28;20632;-77
2021/04/19 03:54:51;;;;;;;23.67;15.18;;;5.00;99.90;;;;;;5069087;28;20082;-77
2021/04/19 03:57:23;;;;;;;21.75;14.57;;;5.00;99.90;;;;;;5059051;28;20132;-78
2021/04/19 03:59:56;;;;;;;21.13;13.57;;;4.90;99.90;;;;;;5064855;28;20076;-77
2021/04/19 04:02:23;;;;;;;23.70;14.98;;;4.90;99.90;;;;;;5063590;28;20115;-78
2021/04/19 04:04:51;;;;;;;21.83;14.60;;;4.90;99.90;;;;;;5060680;28;20164;-78
2021/04/19 04:07:17;;;;;;;22.33;15.68;;;4.80;99.90;;;;;;5051484;28;20119;-78
2021/04/19 04:09:43;;;;;;;21.83;15.05;;;4.90;99.90;;;;;;5054501;28;20104;-76
2021/04/19 04:12:10;;;;;;;24.20;15.68;;;4.90;99.90;;;;;;5070789;28;20219;-76
2021/04/19 04:14:36;;;;;;;24.75;15.10;;;5.00;99.90;;;;;;5042560;28;20445;-76
2021/04/19 04:17:03;;;;;;;24.33;15.77;;;5.10;99.90;;;;;;5053638;28;20104;-76
2021/04/19 04:19:29;;;;;;;24.50;14.90;;;5.00;99.90;;;;;;5083673;23;20116;-77
2021/04/19 04:21:55;;;;;;;23.33;14.90;;;5.00;99.90;;;;;;5046818;28;20093;-77
2021/04/19 04:24:21;;;;;;;23.23;14.85;;;5.00;99.90;;;;;;5049168;28;20069;-76
2021/04/19 04:26:47;;;;;;;22.13;14.23;;;4.90;99.90;;;;;;5063527;28;20097;-76
2021/04/19 04:29:12;;;;;;;18.83;12.73;;;5.00;99.90;;;;;;5056249;28;20171;-77
2021/04/19 04:31:38;;;;;;;23.90;13.98;;;4.80;99.90;;;;;;5042894;28;20082;-77
2021/04/19 04:34:03;;;;;;;18.88;13.07;;;4.80;99.90;;;;;;5046356;28;20076;-77
2021/04/19 04:36:29;;;;;;;20.95;13.65;;;4.70;99.90;;;;;;5037804;28;20081;-76
2021/04/19 04:38:54;;;;;;;22.60;14.95;;;4.80;99.90;;;;;;5063451;28;20142;-77
2021/04/19 04:41:20;;;;;;;26.10;15.80;;;4.70;99.90;;;;;;5055116;28;20097;-78
2021/04/19 04:43:47;;;;;;;24.08;15.88;;;4.80;99.90;;;;;;5067590;28;20080;-77
2021/04/19 04:46:31;;;;;;;25.85;16.05;;;4.80;99.90;;;;;;5054065;28;20164;-76
2021/04/19 04:49:05;;;;;;;20.63;14.32;;;4.90;99.90;;;;;;5067641;28;20126;-76
2021/04/19 04:51:33;;;;;;;24.27;16.15;;;4.90;99.90;;;;;;5059935;28;20078;-77
2021/04/19 04:54:10;;;;;;;22.67;14.07;;;4.90;99.90;;;;;;5053638;28;20555;-77
2021/04/19 04:56:40;;;;;;;23.50;14.35;;;4.90;99.90;;;;;;5060488;28;20483;-77
2021/04/19 04:59:06;;;;;;;25.55;16.48;;;5.00;99.90;;;;;;5061992;28;20093;-76
2021/04/19 05:01:34;;;;;;;22.77;14.07;;;5.00;99.90;;;;;;5064572;28;20093;-77
2021/04/19 05:04:01;;;;;;;23.77;14.85;;;5.00;99.90;;;;;;5035669;28;20143;-76
2021/04/19 05:06:28;;;;;;;23.33;14.45;;;5.00;99.90;;;;;;5056790;28;20450;-78
2021/04/19 05:08:54;;;;;;;18.77;13.93;;;5.10;99.90;;;;;;5054910;28;20085;-76
2021/04/19 05:11:20;;;;;;;21.42;13.82;;;5.10;99.90;;;;;;5068629;28;20146;-77
2021/04/19 05:13:47;;;;;;;21.63;15.05;;;5.10;99.90;;;;;;5060376;28;20144;-77
2021/04/19 05:16:23;;;;;;;24.00;14.00;;;5.10;99.90;;;;;;5059721;28;20077;-77
2021/04/19 05:18:49;;;;;;;23.25;14.63;;;5.10;99.90;;;;;;5071831;28;20119;-76
2021/04/19 05:21:14;;;;;;;22.35;14.35;;;5.10;99.90;;;;;;5048888;28;20566;-76
2021/04/19 05:23:40;;;;;;;20.23;13.77;;;5.10;99.90;;;;;;5060486;28;20085;-76
2021/04/19 05:26:05;;;;;;;19.50;14.32;;;5.10;99.90;;;;;;5062065;28;20080;-77
2021/04/19 05:28:31;;;;;;;19.33;13.35;;;5.10;99.90;;;;;;5040870;28;20092;-77
2021/04/19 05:30:57;;;;;;;20.33;13.50;;;5.10;99.90;;;;;;5051378;28;20488;-77
2021/04/19 05:33:22;;;;;;;20.70;13.18;;;5.00;99.90;;;;;;5040346;28;20115;-76
2021/04/19 05:35:48;;;;;;;21.63;13.77;;;5.10;99.90;;;;;;5050964;28;20523;-76
2021/04/19 05:38:15;;;;;;;21.27;13.60;;;5.20;99.90;;;;;;5053083;28;20098;-76
2021/04/19 05:40:41;;;;;;;21.00;13.02;;;5.20;99.90;;;;;;5036037;28;20111;-76
2021/04/19 05:43:07;;;;;;;21.23;14.77;;;5.20;99.90;;;;;;5063524;28;20524;-76
2021/04/19 05:45:35;;;;;;;22.50;14.38;;;5.10;99.90;;;;;;5058046;28;20239;-76
2021/04/19 05:48:01;;;;;;;20.92;13.27;;;5.10;99.90;;;;;;5043984;28;20094;-76
2021/04/19 05:50:27;;;;;;;23.40;15.23;;;5.10;99.90;;;;;;5070972;28;20073;-77
2021/04/19 05:52:56;;;;;;;21.23;15.02;;;5.10;99.90;;;;;;5067105;28;20562;-77
2021/04/19 05:55:27;;;;;;;20.98;14.70;;;5.10;99.90;;;;;;5049687;28;20069;-77
2021/04/19 05:58:08;;;;;;;23.30;14.98;;;5.10;99.90;;;;;;5061590;28;20160;-76
2021/04/19 06:00:48;;;;;;;22.75;15.38;;;5.20;99.90;;;;;;5049985;28;20091;-76
2021/04/19 06:03:51;;;;;;;20.77;14.30;;;5.30;99.90;;;;;;5045701;28;20439;-75
2021/04/19 06:06:34;;;;;;;22.27;13.85;;;5.40;99.90;;;;;;5018705;28;20598;-75
2021/04/19 06:09:09;;;;;;;21.27;14.15;;;5.40;99.90;;;;;;5052381;28;20171;-76
2021/04/19 06:11:48;;;;;;;23.50;14.32;;;5.40;99.90;;;;;;5035271;28;20453;-76
2021/04/19 06:14:17;;;;;;;21.58;15.05;;;5.30;99.90;;;;;;5065386;28;20169;-75
2021/04/19 06:16:44;;;;;;;19.92;12.52;;;5.40;99.90;;;;;;5037950;28;20449;-76
2021/04/19 06:19:12;;;;;;;19.83;14.00;;;5.40;99.90;;;;;;5037639;28;20108;-75
2021/04/19 06:21:39;;;;;;;21.67;13.63;;;5.50;99.90;;;;;;5060318;28;20085;-75
2021/04/19 06:24:06;;;;;;;23.88;15.10;;;5.50;99.90;;;;;;5057420;28;20061;-76
2021/04/19 06:26:34;;;;;;;23.30;14.93;;;5.50;99.90;;;;;;5053942;28;20430;-78
2021/04/19 06:29:00;;;;;;;26.33;15.68;;;5.40;99.90;;;;;;5068775;28;20581;-76
2021/04/19 06:31:26;;;;;;;23.25;14.63;;;5.40;99.90;;;;;;5065375;28;20131;-76
2021/04/19 06:34:11;;;;;;;22.65;15.00;;;5.40;99.90;;;;;;5055921;28;20081;-76
2021/04/19 06:36:39;;;;;;;21.17;14.70;;;5.50;99.90;;;;;;5051793;28;21175;-75
2021/04/19 06:39:07;;;;;;;22.23;14.60;;;5.50;99.90;;;;;;5051887;28;20093;-77
2021/04/19 06:41:33;;;;;;;20.48;14.50;;;5.60;99.90;;;;;;5056993;28;20094;-75
2021/04/19 06:43:59;;;;;;;24.02;14.63;;;5.70;99.90;;;;;;5067302;28;20089;-76
2021/04/19 06:46:33;;;;;;;22.85;15.45;;;5.60;99.90;;;;;;5047616;28;20074;-76
2021/04/19 06:48:59;;;;;;;22.73;14.30;;;5.70;99.90;;;;;;5066468;28;20180;-77
2021/04/19 06:51:25;;;;;;;21.80;15.15;;;5.70;99.90;;;;;;5052141;28;20112;-77
2021/04/19 06:53:55;;;;;;;23.92;14.98;;;5.70;99.90;;;;;;5045087;28;20115;-76
2021/04/19 06:56:28;;;;;;;23.10;14.18;;;5.70;99.90;;;;;;5060726;28;20128;-75
2021/04/19 06:58:57;;;;;;;26.17;15.27;;;5.80;99.90;;;;;;5065872;28;20130;-77
2021/04/19 07:01:25;;;;;;;23.15;15.70;;;5.80;99.90;;;;;;5044368;28;20126;-78
2021/04/19 07:04:02;;;;;;;21.33;15.13;;;5.90;99.90;;;;;;5052496;28;20088;-77
2021/04/19 07:06:38;;;;;;;22.83;15.02;;;5.90;99.90;;;;;;5070536;28;20089;-75
2021/04/19 07:09:33;;;;;;;26.10;15.45;;;6.00;99.90;;;;;;5071475;28;20089;-78
2021/04/19 07:12:05;;;;;;;23.90;15.63;;;6.10;99.90;;;;;;5032369;28;20097;-77
2021/04/19 07:14:33;;;;;;;27.10;16.52;;;6.10;99.90;;;;;;5053358;28;20527;-78
2021/04/19 07:16:59;;;;;;;25.88;15.85;;;6.20;99.90;;;;;;5070692;28;20066;-76
2021/04/19 07:19:25;;;;;;;28.10;16.45;;;6.30;99.90;;;;;;5047707;28;20133;-76
2021/04/19 07:21:51;;;;;;;25.83;15.07;;;6.30;99.90;;;;;;5072472;28;20093;-77
2021/04/19 07:24:17;;;;;;;28.98;16.10;;;6.40;99.90;;;;;;5054977;28;20164;-77
2021/04/19 07:26:43;;;;;;;23.20;14.98;;;6.50;99.90;;;;;;5061607;28;20074;-76
2021/04/19 07:29:09;;;;;;;25.90;15.93;;;6.50;99.90;;;;;;5051171;28;20173;-76
2021/04/19 07:31:52;;;;;;;25.38;16.73;;;6.60;99.90;;;;;;5056432;28;20156;-78
2021/04/19 07:34:23;;;;;;;35.65;16.30;;;6.80;99.90;;;;;;5045734;28;20095;-76
2021/04/19 07:36:54;;;;;;;24.30;16.05;;;7.00;99.90;;;;;;5057157;28;20077;-77
2021/04/19 07:39:21;;;;;;;23.73;15.85;;;7.00;99.90;;;;;;5032869;28;20093;-77
2021/04/19 07:41:50;;;;;;;26.58;15.93;;;7.00;99.90;;;;;;5052611;28;20092;-77
2021/04/19 07:44:38;;;;;;;22.77;15.93;;;7.00;99.90;;;;;;5052041;28;20069;-78
2021/04/19 07:47:24;;;;;;;25.15;16.58;;;7.00;99.90;;;;;;5053048;28;20135;-77
2021/04/19 07:50:07;;;;;;;23.23;16.05;;;7.10;99.90;;;;;;5048115;28;20100;-75
2021/04/19 07:52:52;;;;;;;27.45;16.75;;;7.10;99.90;;;;;;5050564;28;20069;-77
2021/04/19 07:55:21;;;;;;;;;;;7.20;99.90;;;;;;5043130;28;20163;-77
2021/04/19 07:57:47;;;;;;;23.40;15.02;;;7.20;99.90;;;;;;5056054;28;19949;-77
2021/04/19 08:00:39;;;;;;;22.98;15.38;;;7.30;99.90;;;;;;5116308;27;20993;-78
2021/04/19 08:03:16;;;;;;;26.00;16.95;;;7.30;99.90;;;;;;5115769;27;20073;-77
2021/04/19 08:05:49;;;;;;;26.30;16.98;;;7.30;99.90;;;;;;5130554;27;20106;-78
2021/04/19 08:08:35;;;;;;;30.48;18.02;;;7.40;99.90;;;;;;5121404;27;20127;-77
2021/04/19 08:11:08;;;;;;;25.65;16.50;;;7.50;99.90;;;;;;5127221;28;20072;-77
2021/04/19 08:13:34;;;;;;;23.67;16.10;;;7.50;99.90;;;;;;5106844;28;20080;-77
2021/04/19 08:16:19;;;;;;;24.73;16.40;;;7.70;99.90;;;;;;5112340;28;20140;-77
2021/04/19 08:18:45;;;;;;;23.67;15.82;;;7.80;99.90;;;;;;5112541;28;20514;-77
2021/04/19 08:21:12;;;;;;;25.63;17.17;;;7.80;99.90;;;;;;5118354;27;20072;-79
2021/04/19 08:23:43;;;;;;;25.45;17.05;;;8.00;99.90;;;;;;5122187;27;20075;-78
2021/04/19 08:26:10;;;;;;;27.55;16.95;;;8.10;99.90;;;;;;5121740;27;20179;-77
2021/04/19 08:28:49;;;;;;;29.25;17.88;;;8.10;99.90;;;;;;5117975;27;20095;-78
2021/04/19 08:31:16;;;;;;;24.02;15.85;;;8.20;99.90;;;;;;5129802;27;20083;-77
2021/04/19 08:33:43;;;;;;;27.00;16.55;;;8.20;99.90;;;;;;5126705;27;20183;-79
2021/04/19 08:36:11;;;;;;;28.85;17.92;;;8.20;99.90;;;;;;5113750;28;20083;-78
2021/04/19 08:38:37;;;;;;;26.70;16.35;;;8.20;99.90;;;;;;5122426;27;20099;-77
2021/04/19 08:41:04;;;;;;;28.80;16.85;;;8.30;99.90;;;;;;5115664;27;20091;-77
2021/04/19 08:43:33;;;;;;;25.13;17.02;;;8.30;99.90;;;;;;5130219;27;20835;-77
2021/04/19 08:45:59;;;;;;;28.33;17.33;;;8.30;99.90;;;;;;5128924;27;20069;-79
2021/04/19 08:48:25;;;;;;;30.75;18.23;;;8.30;99.90;;;;;;5118160;27;20440;-78
2021/04/19 08:50:53;;;;;;;26.70;16.90;;;8.30;99.90;;;;;;5123329;27;20091;-77
2021/04/19 08:53:20;;;;;;;27.20;17.90;;;8.40;99.90;;;;;;5120995;27;20512;-78
2021/04/19 08:55:47;;;;;;;26.17;17.15;;;8.50;99.90;;;;;;5126575;27;20072;-78
2021/04/19 08:58:17;;;;;;;28.27;17.52;;;8.60;99.90;;;;;;5124189;27;20103;-78
2021/04/19 09:00:47;;;;;;;25.23;16.65;;;8.70;99.90;;;;;;5110969;27;20527;-77
2021/04/19 09:03:16;;;;;;;28.15;17.02;;;8.70;99.90;;;;;;5126560;27;20462;-78
2021/04/19 09:05:42;;;;;;;25.17;17.60;;;8.60;99.90;;;;;;5106992;28;21111;-78
2021/04/19 09:08:15;;;;;;;26.13;17.60;;;8.70;99.90;;;;;;5113926;27;20144;-79
2021/04/19 09:11:06;;;;;;;25.55;16.60;;;8.70;99.90;;;;;;5115347;27;20203;-78
2021/04/19 09:13:40;;;;;;;24.20;16.63;;;8.60;99.90;;;;;;5115499;27;20077;-79
2021/04/19 09:16:22;;;;;;;28.35;16.23;;;8.60;99.90;;;;;;5094839;28;20164;-77
2021/04/19 09:18:54;;;;;;;24.60;17.25;;;8.70;99.90;;;;;;5110184;28;20099;-77
2021/04/19 09:21:32;;;;;;;27.48;16.52;;;8.70;99.90;;;;;;5098978;28;20091;-77
2021/04/19 09:23:58;;;;;;;27.02;15.05;;;8.70;99.90;;;;;;5112274;28;20072;-78
2021/04/19 09:26:48;;;;;;;30.33;17.50;;;8.80;99.90;;;;;;5101488;28;20128;-78
2021/04/19 09:29:27;;;;;;;30.88;17.00;;;8.90;99.90;;;;;;5092688;28;20099;-78
2021/04/19 09:32:09;;;;;;;27.50;15.77;;;9.00;99.90;;;;;;5094835;28;20122;-77
2021/04/19 09:34:53;;;;;;;28.73;16.13;;;9.00;99.90;;;;;;5095050;28;20084;-78
2021/04/19 09:37:22;;;;;;;24.93;15.37;;;8.90;99.90;;;;;;5091310;28;20504;-79
2021/04/19 09:40:01;;;;;;;31.10;17.02;;;8.90;99.90;;;;;;5110090;28;20516;-77
2021/04/19 09:43:06;;;;;;;26.60;14.73;;;9.00;99.90;;;;;;5094697;28;20608;-77
2021/04/19 09:45:41;;;;;;;29.10;17.30;;;8.90;99.90;;;;;;5102443;27;20198;-77
2021/04/19 09:48:27;;;;;;;25.25;15.35;;;9.00;99.90;;;;;;5098956;27;20080;-77
2021/04/19 09:50:53;;;;;;;26.88;15.13;;;9.10;99.90;;;;;;5096400;27;20117;-77
2021/04/19 09:53:19;;;;;;;25.98;15.32;;;9.10;99.90;;;;;;5097382;27;20143;-77
2021/04/19 09:55:45;;;;;;;25.83;15.27;;;9.10;99.90;;;;;;5110894;28;20587;-77
2021/04/19 09:58:11;;;;;;;25.88;16.30;;;9.10;99.90;;;;;;5103138;28;20505;-77
2021/04/19 10:00:36;;;;;;;28.70;15.93;;;9.10;99.90;;;;;;5094718;28;20171;-77
2021/04/19 10:03:02;;;;;;;26.33;16.88;;;9.20;99.90;;;;;;5096277;28;20159;-76
2021/04/19 10:05:29;;;;;;;24.35;15.80;;;9.20;99.90;;;;;;5093133;28;20112;-76
2021/04/19 10:07:58;;;;;;;27.13;16.02;;;9.10;99.90;;;;;;5097804;28;20079;-77
2021/04/19 10:10:24;;;;;;;27.50;14.60;;;9.10;99.90;;;;;;5111237;28;20080;-77
2021/04/19 10:12:49;;;;;;;25.75;16.65;;;9.10;99.90;;;;;;5109473;27;20674;-77
2021/04/19 10:15:16;;;;;;;23.80;14.57;;;9.20;99.90;;;;;;5109463;28;20092;-77
2021/04/19 10:17:41;;;;;;;24.85;15.90;;;9.20;99.90;;;;;;5117495;27;20626;-77
2021/04/19 10:20:16;;;;;;;25.15;14.75;;;9.20;99.90;;;;;;5106410;27;20179;-77
2021/04/19 10:22:42;;;;;;;27.77;15.85;;;9.30;99.90;;;;;;5110843;27;20075;-77
2021/04/19 10:25:08;;;;;;;25.95;15.35;;;9.30;99.90;;;;;;5098784;27;20060;-77
2021/04/19 10:27:33;;;;;;;22.95;14.27;;;9.40;99.90;;;;;;5110946;27;20086;-78
2021/04/19 10:30:14;;;;;;;23.88;15.38;;;9.30;99.90;;;;;;5110113;28;20815;-78
2021/04/19 10:32:40;;;;;;;23.63;13.57;;;9.30;99.90;;;;;;5117390;27;20080;-75
2021/04/19 10:35:30;;;;;;;18.75;12.40;;;9.40;99.90;;;;;;5111384;28;20150;-78
2021/04/19 10:37:56;;;;;;;20.02;12.32;;;9.40;99.90;;;;;;5094964;28;20193;-77
2021/04/19 10:40:22;;;;;;;20.42;12.90;;;9.50;99.90;;;;;;5111522;28;20072;-76
2021/04/19 10:42:48;;;;;;;20.48;13.07;;;9.50;99.90;;;;;;5107657;28;20075;-78
2021/04/19 10:45:14;;;;;;;19.98;13.30;;;9.50;99.90;;;;;;5101876;28;20451;-79
2021/04/19 10:47:39;;;;;;;19.85;12.55;;;9.60;99.90;;;;;;5093904;28;20101;-78
2021/04/19 10:50:06;;;;;;;20.15;11.55;;;9.60;99.90;;;;;;5101983;27;20108;-77
2021/04/19 10:52:31;;;;;;;16.00;10.88;;;9.60;99.90;;;;;;5093837;28;20192;-76
2021/04/19 10:55:08;;;;;;;20.55;11.38;;;9.70;99.90;;;;;;5107525;28;20516;-77
2021/04/19 10:57:34;;;;;;;21.90;11.65;;;9.60;99.90;;;;;;5106200;28;20083;-77
2021/04/19 11:00:00;;;;;;;16.52;10.68;;;9.60;99.90;;;;;;5105403;27;20103;-76
2021/04/19 11:02:30;;;;;;;19.35;10.15;;;9.70;99.90;;;;;;5103663;28;20084;-75
2021/04/19 11:04:57;;;;;;;17.77;10.70;;;9.90;99.90;;;;;;5102509;28;20460;-76
2021/04/19 11:07:31;;;;;;;15.02;9.40;;;10.10;99.90;;;;;;5091678;28;20590;-76
2021/04/19 11:10:27;;;;;;;15.85;9.40;;;10.00;99.90;;;;;;5103172;27;20200;-75
2021/04/19 11:13:08;;;;;;;14.52;8.68;;;10.00;99.90;;;;;;5098071;28;20151;-78
2021/04/19 11:15:40;;;;;;;13.30;8.55;;;10.00;99.90;;;;;;5092610;28;20168;-79
2021/04/19 11:18:26;;;;;;;19.33;11.30;;;10.10;99.90;;;;;;5097517;28;20096;-76
2021/04/19 11:20:53;;;;;;;17.73;12.30;;;10.10;99.90;;;;;;5090974;28;20076;-77
2021/04/19 11:23:26;;;;;;;18.58;12.40;;;10.00;99.90;;;;;;5096576;28;20110;-77
2021/04/19 11:25:53;;;;;;;19.35;11.90;;;10.20;99.90;;;;;;5100564;28;20073;-74
2021/04/19 11:28:25;;;;;;;15.82;9.77;;;10.20;99.90;;;;;;5090611;28;20092;-76
2021/04/19 11:30:53;;;;;;;17.10;9.63;;;10.10;99.90;;;;;;5094607;28;20650;-75
2021/04/19 11:33:25;;;;;;;15.80;9.02;;;10.10;99.90;;;;;;5091969;28;20164;-76
2021/04/19 11:35:57;;;;;;;16.58;10.52;;;10.20;99.90;;;;;;5093508;28;20069;-75
2021/04/19 11:38:25;;;;;;;12.70;8.02;;;10.30;99.90;;;;;;5098727;27;20095;-75
2021/04/19 11:40:52;;;;;;;13.88;9.82;;;10.30;99.90;;;;;;5098903;28;20104;-75
2021/04/19 11:43:48;;;;;;;12.07;7.22;;;10.40;99.90;;;;;;5112681;22;20114;-78
2021/04/19 11:46:15;;;;;;;10.15;6.85;;;10.40;99.90;;;;;;5084571;28;20117;-76
2021/04/19 11:48:44;;;;;;;8.70;6.53;;;10.50;99.90;;;;;;5070620;28;20080;-77
2021/04/19 11:51:14;;;;;;;9.10;5.47;;;10.60;99.90;;;;;;5088885;28;20131;-78
2021/04/19 11:53:41;;;;;;;6.90;5.28;;;10.70;99.90;;;;;;5078316;28;20089;-75
2021/04/19 11:56:08;;;;;;;7.75;5.32;;;10.60;99.90;;;;;;5060219;28;20536;-78
2021/04/19 11:58:42;;;;;;;8.10;6.07;;;10.60;99.90;;;;;;5059467;28;20495;-77
2021/04/19 12:01:10;;;;;;;9.07;7.10;;;10.70;99.90;;;;;;5072543;28;20443;-76
2021/04/19 12:03:42;;;;;;;9.00;6.75;;;10.60;99.90;;;;;;5089572;28;20171;-77
2021/04/19 12:06:09;;;;;;;8.80;5.90;;;10.70;99.90;;;;;;5084866;28;20205;-76
2021/04/19 12:08:36;;;;;;;8.23;6.00;;;10.60;99.90;;;;;;5072348;28;20077;-78
2021/04/19 12:11:02;;;;;;;7.50;5.90;;;10.80;99.90;;;;;;5086831;28;20117;-76
2021/04/19 12:13:28;;;;;;;8.85;4.30;;;10.80;99.90;;;;;;5059934;28;20088;-76
2021/04/19 12:15:54;;;;;;;5.60;3.65;;;10.80;99.90;;;;;;5074051;28;20087;-77
2021/04/19 12:18:21;;;;;;;4.50;3.50;;;10.70;98.80;;;;;;5063925;28;20512;-77
2021/04/19 12:20:50;;;;;;;5.22;4.15;;;10.80;97.70;;;;;;5087745;28;20064;-77
2021/04/19 12:23:16;;;;;;;5.18;3.90;;;10.80;97.20;;;;;;5071195;28;20142;-77
2021/04/19 12:25:42;;;;;;;5.93;4.10;;;10.90;97.70;;;;;;5062476;28;20076;-78
2021/04/19 12:28:08;;;;;;;6.15;3.65;;;11.00;96.90;;;;;;5067341;28;20096;-77
2021/04/19 12:30:34;;;;;;;6.80;4.88;;;11.10;99.30;;;;;;5068296;28;20079;-76
2021/04/19 12:32:59;;;;;;;7.30;5.45;;;11.10;96.80;;;;;;5071288;28;20119;-77
2021/04/19 12:35:27;;;;;;;8.68;4.95;;;11.00;96.30;;;;;;5089607;28;20094;-77
2021/04/19 12:37:52;;;;;;;11.05;6.22;;;11.00;97.50;;;;;;5068636;28;20073;-77
2021/04/19 12:40:20;;;;;;;8.68;6.00;;;11.30;97.80;;;;;;5070265;28;20614;-77
2021/04/19 12:42:47;;;;;;;11.23;6.88;;;11.30;97.40;;;;;;5064177;28;20081;-76
2021/04/19 12:45:13;;;;;;;7.80;6.18;;;11.20;97.00;;;;;;5072088;28;20076;-76
2021/04/19 12:47:38;;;;;;;11.23;6.97;;;11.20;95.60;;;;;;5075131;28;20069;-76
2021/04/19 12:50:05;;;;;;;9.10;7.25;;;11.20;97.30;;;;;;5078761;28;20088;-77
2021/04/19 12:52:32;;;;;;;10.02;7.28;;;10.90;99.90;;;;;;5075964;28;20091;-75